sensor_id;sensor_type;location;lat;lon;timestamp;pressure;altitude;pressure_sealevel;temperature;humidity
62864;BME280;48954;59.950;11.014;2023-12-07T00:00:18;100785.91;;;-10.27;80.00
62864;BME280;48954;59.950;11.014;2023-12-07T00:03:06;100786.31;;;-10.28;80.13
62864;BME280;48954;59.950;11.014;2023-12-07T00:05:33;100783.95;;;-10.26;79.84
62864;BME280;48954;59.950;11.014;2023-12-07T00:08:04;100782.87;;;-10.25;80.25
62864;BME280;48954;59.950;11.014;2023-12-07T00:10:33;100780.70;;;-10.24;79.84
62864;BME280;48954;59.950;11.014;2023-12-07T00:12:59;100775.71;;;-10.24;79.82
62864;BME280;48954;59.950;11.014;2023-12-07T00:15:40;100781.45;;;-10.23;80.17
62864;BME280;48954;59.950;11.014;2023-12-07T00:18:08;100779.80;;;-10.23;79.96
62864;BME280;48954;59.950;11.014;2023-12-07T00:20:36;100785.34;;;-10.22;80.08
62864;BME280;48954;59.950;11.014;2023-12-07T00:23:07;100790.10;;;-10.20;80.06
62864;BME280;48954;59.950;11.014;2023-12-07T00:25:39;100792.39;;;-10.19;79.79
62864;BME280;48954;59.950;11.014;2023-12-07T00:28:06;100790.96;;;-10.19;80.16
62864;BME280;48954;59.950;11.014;2023-12-07T00:30:34;100788.16;;;-10.18;80.01
62864;BME280;48954;59.950;11.014;2023-12-07T00:33:02;100787.91;;;-10.17;79.85
62864;BME280;48954;59.950;11.014;2023-12-07T00:35:32;100785.43;;;-10.16;80.12
62864;BME280;48954;59.950;11.014;2023-12-07T00:37:58;100787.73;;;-10.14;80.20
62864;BME280;48954;59.950;11.014;2023-12-07T00:40:29;100784.03;;;-10.12;80.35
62864;BME280;48954;59.950;11.014;2023-12-07T00:42:59;100785.02;;;-10.10;79.92
62864;BME280;48954;59.950;11.014;2023-12-07T00:45:39;100783.80;;;-10.09;80.14
62864;BME280;48954;59.950;11.014;2023-12-07T00:48:06;100789.59;;;-10.07;79.76
62864;BME280;48954;59.950;11.014;2023-12-07T00:50:34;100786.56;;;-10.05;80.18
62864;BME280;48954;59.950;11.014;2023-12-07T00:53:10;100787.06;;;-10.04;79.98
62864;BME280;48954;59.950;11.014;2023-12-07T00:55:42;100784.36;;;-10.03;79.80
62864;BME280;48954;59.950;11.014;2023-12-07T00:58:11;100779.77;;;-10.05;79.91
62864;BME280;48954;59.950;11.014;2023-12-07T01:00:43;100785.48;;;-10.02;79.90
62864;BME280;48954;59.950;11.014;2023-12-07T01:03:10;100785.89;;;-10.01;80.22
62864;BME280;48954;59.950;11.014;2023-12-07T01:05:38;100786.31;;;-10.01;80.10
62864;BME280;48954;59.950;11.014;2023-12-07T01:08:09;100787.84;;;-9.99;80.04
62864;BME280;48954;59.950;11.014;2023-12-07T01:10:45;100789.98;;;-9.98;80.23
62864;BME280;48954;59.950;11.014;2023-12-07T01:13:17;100790.39;;;-9.98;80.01
62864;BME280;48954;59.950;11.014;2023-12-07T01:15:44;100793.42;;;-9.96;80.05
62864;BME280;48954;59.950;11.014;2023-12-07T01:18:15;100792.53;;;-9.94;79.88
62864;BME280;48954;59.950;11.014;2023-12-07T01:20:45;100794.62;;;-9.94;80.09
62864;BME280;48954;59.950;11.014;2023-12-07T01:23:16;100795.85;;;-9.92;80.14
62864;BME280;48954;59.950;11.014;2023-12-07T01:25:54;100800.82;;;-9.91;79.93
62864;BME280;48954;59.950;11.014;2023-12-07T01:28:22;100801.80;;;-9.90;80.21
62864;BME280;48954;59.950;11.014;2023-12-07T01:30:48;100798.36;;;-9.91;80.02
62864;BME280;48954;59.950;11.014;2023-12-07T01:33:21;100801.45;;;-9.89;80.17
62864;BME280;48954;59.950;11.014;2023-12-07T01:35:57;100803.70;;;-9.89;80.24
62864;BME280;48954;59.950;11.014;2023-12-07T01:38:34;100805.84;;;-9.89;80.01
62864;BME280;48954;59.950;11.014;2023-12-07T01:41:03;100808.37;;;-9.89;79.79
62864;BME280;48954;59.950;11.014;2023-12-07T01:43:34;100808.48;;;-9.89;80.27
62864;BME280;48954;59.950;11.014;2023-12-07T01:46:03;100813.58;;;-9.88;79.87
62864;BME280;48954;59.950;11.014;2023-12-07T01:48:29;100815.70;;;-9.87;80.00
62864;BME280;48954;59.950;11.014;2023-12-07T01:51:18;100817.01;;;-9.86;80.02
62864;BME280;48954;59.950;11.014;2023-12-07T01:53:49;100815.64;;;-9.85;80.11
62864;BME280;48954;59.950;11.014;2023-12-07T01:56:17;100814.83;;;-9.86;80.01
62864;BME280;48954;59.950;11.014;2023-12-07T01:58:54;100816.42;;;-9.86;80.42
62864;BME280;48954;59.950;11.014;2023-12-07T02:01:25;100814.88;;;-9.86;80.02
62864;BME280;48954;59.950;11.014;2023-12-07T02:03:54;100817.60;;;-9.86;80.07
62864;BME280;48954;59.950;11.014;2023-12-07T02:06:22;100811.19;;;-9.85;80.10
62864;BME280;48954;59.950;11.014;2023-12-07T02:08:50;100807.66;;;-9.84;80.45
62864;BME280;48954;59.950;11.014;2023-12-07T02:11:22;100805.66;;;-9.85;80.21
62864;BME280;48954;59.950;11.014;2023-12-07T02:14:02;100809.39;;;-9.84;80.02
62864;BME280;48954;59.950;11.014;2023-12-07T02:16:43;100810.05;;;-9.83;80.26
62864;BME280;48954;59.950;11.014;2023-12-07T02:22:26;100804.85;;;-9.83;80.17
62864;BME280;48954;59.950;11.014;2023-12-07T02:25:08;100809.96;;;-9.83;80.06
62864;BME280;48954;59.950;11.014;2023-12-07T02:27:42;100815.13;;;-9.84;80.15
62864;BME280;48954;59.950;11.014;2023-12-07T02:30:17;100810.94;;;-9.85;80.29
62864;BME280;48954;59.950;11.014;2023-12-07T02:32:45;100811.26;;;-9.86;80.12
62864;BME280;48954;59.950;11.014;2023-12-07T02:35:13;100808.44;;;-9.86;80.22
62864;BME280;48954;59.950;11.014;2023-12-07T02:37:45;100801.60;;;-9.86;80.24
62864;BME280;48954;59.950;11.014;2023-12-07T02:40:13;100798.84;;;-9.87;80.09
62864;BME280;48954;59.950;11.014;2023-12-07T02:42:51;100799.45;;;-9.87;79.96
62864;BME280;48954;59.950;11.014;2023-12-07T02:45:18;100803.95;;;-9.88;80.13
62864;BME280;48954;59.950;11.014;2023-12-07T02:47:49;100804.15;;;-9.89;80.34
62864;BME280;48954;59.950;11.014;2023-12-07T02:50:15;100806.67;;;-9.91;79.78
62864;BME280;48954;59.950;11.014;2023-12-07T02:52:44;100804.89;;;-9.94;80.29
62864;BME280;48954;59.950;11.014;2023-12-07T02:55:11;100804.84;;;-9.96;79.70
62864;BME280;48954;59.950;11.014;2023-12-07T02:57:38;100806.96;;;-9.98;80.14
62864;BME280;48954;59.950;11.014;2023-12-07T03:00:08;100803.16;;;-9.99;79.76
62864;BME280;48954;59.950;11.014;2023-12-07T03:02:40;100801.25;;;-10.01;80.14
62864;BME280;48954;59.950;11.014;2023-12-07T03:05:09;100801.52;;;-10.03;79.80
62864;BME280;48954;59.950;11.014;2023-12-07T03:07:35;100799.30;;;-10.04;79.93
62864;BME280;48954;59.950;11.014;2023-12-07T03:10:06;100797.58;;;-10.05;79.70
62864;BME280;48954;59.950;11.014;2023-12-07T03:12:33;100800.11;;;-10.07;80.16
62864;BME280;48954;59.950;11.014;2023-12-07T03:15:00;100803.25;;;-10.08;79.76
62864;BME280;48954;59.950;11.014;2023-12-07T03:17:33;100794.55;;;-10.15;80.06
62864;BME280;48954;59.950;11.014;2023-12-07T03:20:02;100798.61;;;-10.15;79.92
62864;BME280;48954;59.950;11.014;2023-12-07T03:22:42;100806.02;;;-10.15;79.99
62864;BME280;48954;59.950;11.014;2023-12-07T03:25:08;100804.83;;;-10.18;79.73
62864;BME280;48954;59.950;11.014;2023-12-07T03:27:35;100799.47;;;-10.21;79.75
62864;BME280;48954;59.950;11.014;2023-12-07T03:30:05;100797.95;;;-10.22;79.92
62864;BME280;48954;59.950;11.014;2023-12-07T03:32:36;100796.42;;;-10.24;79.90
62864;BME280;48954;59.950;11.014;2023-12-07T03:35:04;100792.95;;;-10.26;80.31
62864;BME280;48954;59.950;11.014;2023-12-07T03:37:35;100795.53;;;-10.26;79.95
62864;BME280;48954;59.950;11.014;2023-12-07T03:40:02;100796.67;;;-10.28;80.03
62864;BME280;48954;59.950;11.014;2023-12-07T03:42:30;100792.73;;;-10.29;80.39
62864;BME280;48954;59.950;11.014;2023-12-07T03:45:10;100795.27;;;-10.30;79.91
62864;BME280;48954;59.950;11.014;2023-12-07T03:48:12;100793.04;;;-10.33;80.38
62864;BME280;48954;59.950;11.014;2023-12-07T03:50:39;100797.77;;;-10.30;80.30
62864;BME280;48954;59.950;11.014;2023-12-07T03:53:13;100796.29;;;-10.29;80.31
62864;BME280;48954;59.950;11.014;2023-12-07T03:55:43;100795.11;;;-10.28;80.41
62864;BME280;48954;59.950;11.014;2023-12-07T03:58:11;100797.36;;;-10.28;80.13
62864;BME280;48954;59.950;11.014;2023-12-07T04:00:54;100799.58;;;-10.28;80.20
62864;BME280;48954;59.950;11.014;2023-12-07T04:03:37;100793.84;;;-10.28;80.29
62864;BME280;48954;59.950;11.014;2023-12-07T04:06:27;100794.98;;;-10.28;79.95
62864;BME280;48954;59.950;11.014;2023-12-07T04:09:11;100790.61;;;-10.28;80.40
62864;BME280;48954;59.950;11.014;2023-12-07T04:11:56;100790.90;;;-10.28;80.31
62864;BME280;48954;59.950;11.014;2023-12-07T04:14:36;100790.24;;;-10.28;80.44
62864;BME280;48954;59.950;11.014;2023-12-07T04:17:40;100793.44;;;-10.28;80.59
62864;BME280;48954;59.950;11.014;2023-12-07T04:20:24;100793.98;;;-10.27;80.49
62864;BME280;48954;59.950;11.014;2023-12-07T04:23:04;100794.30;;;-10.27;80.27
62864;BME280;48954;59.950;11.014;2023-12-07T04:25:48;100794.02;;;-10.27;80.40
62864;BME280;48954;59.950;11.014;2023-12-07T04:28:29;100795.40;;;-10.27;80.40
62864;BME280;48954;59.950;11.014;2023-12-07T04:31:11;100791.35;;;-10.27;80.36
62864;BME280;48954;59.950;11.014;2023-12-07T04:34:13;100791.85;;;-10.27;80.13
62864;BME280;48954;59.950;11.014;2023-12-07T04:36:54;100791.68;;;-10.27;80.12
62864;BME280;48954;59.950;11.014;2023-12-07T04:39:37;100789.80;;;-10.27;80.55
62864;BME280;48954;59.950;11.014;2023-12-07T04:42:38;100788.69;;;-10.28;79.96
62864;BME280;48954;59.950;11.014;2023-12-07T04:45:23;100792.61;;;-10.29;80.17
62864;BME280;48954;59.950;11.014;2023-12-07T04:48:06;100796.09;;;-10.29;80.18
62864;BME280;48954;59.950;11.014;2023-12-07T04:50:51;100796.79;;;-10.29;80.36
62864;BME280;48954;59.950;11.014;2023-12-07T04:53:35;100796.56;;;-10.30;79.99
62864;BME280;48954;59.950;11.014;2023-12-07T04:56:19;100794.23;;;-10.31;80.22
62864;BME280;48954;59.950;11.014;2023-12-07T04:59:04;100793.41;;;-10.32;80.18
62864;BME280;48954;59.950;11.014;2023-12-07T05:01:49;100793.85;;;-10.33;80.25
62864;BME280;48954;59.950;11.014;2023-12-07T05:04:40;100790.77;;;-10.33;80.29
62864;BME280;48954;59.950;11.014;2023-12-07T05:07:32;100791.31;;;-10.33;80.41
62864;BME280;48954;59.950;11.014;2023-12-07T05:10:39;100787.13;;;-10.34;80.17
62864;BME280;48954;59.950;11.014;2023-12-07T05:13:36;100793.27;;;-10.33;80.33
62864;BME280;48954;59.950;11.014;2023-12-07T05:16:19;100798.23;;;-10.32;80.12
62864;BME280;48954;59.950;11.014;2023-12-07T05:19:20;100799.13;;;-10.32;80.16
62864;BME280;48954;59.950;11.014;2023-12-07T05:22:01;100796.03;;;-10.32;80.46
62864;BME280;48954;59.950;11.014;2023-12-07T05:24:41;100794.06;;;-10.32;80.25
62864;BME280;48954;59.950;11.014;2023-12-07T05:27:23;100794.52;;;-10.31;80.46
62864;BME280;48954;59.950;11.014;2023-12-07T05:30:05;100792.69;;;-10.30;80.41
62864;BME280;48954;59.950;11.014;2023-12-07T05:33:21;100790.60;;;-10.29;80.41
62864;BME280;48954;59.950;11.014;2023-12-07T05:36:01;100788.64;;;-10.29;80.41
62864;BME280;48954;59.950;11.014;2023-12-07T05:38:42;100790.20;;;-10.29;80.17
62864;BME280;48954;59.950;11.014;2023-12-07T05:41:12;100784.55;;;-10.29;80.42
62864;BME280;48954;59.950;11.014;2023-12-07T05:43:54;100784.55;;;-10.29;80.30
62864;BME280;48954;59.950;11.014;2023-12-07T05:46:35;100780.21;;;-10.29;80.13
62864;BME280;48954;59.950;11.014;2023-12-07T05:49:17;100785.00;;;-10.28;79.96
62864;BME280;48954;59.950;11.014;2023-12-07T05:51:59;100781.88;;;-10.29;80.09
62864;BME280;48954;59.950;11.014;2023-12-07T05:54:44;100785.62;;;-10.28;80.39
62864;BME280;48954;59.950;11.014;2023-12-07T05:57:27;100781.36;;;-10.28;80.02
62864;BME280;48954;59.950;11.014;2023-12-07T06:00:12;100779.52;;;-10.29;80.17
62864;BME280;48954;59.950;11.014;2023-12-07T06:03:00;100778.13;;;-10.29;80.25
62864;BME280;48954;59.950;11.014;2023-12-07T06:05:56;100785.36;;;-10.29;80.39
62864;BME280;48954;59.950;11.014;2023-12-07T06:08:40;100784.85;;;-10.28;80.15
62864;BME280;48954;59.950;11.014;2023-12-07T06:11:33;100787.91;;;-10.28;80.33
62864;BME280;48954;59.950;11.014;2023-12-07T06:14:21;100788.08;;;-10.28;80.18
62864;BME280;48954;59.950;11.014;2023-12-07T06:17:22;100789.46;;;-10.29;80.23
62864;BME280;48954;59.950;11.014;2023-12-07T06:20:27;100788.48;;;-10.29;80.24
62864;BME280;48954;59.950;11.014;2023-12-07T06:23:11;100792.44;;;-10.30;80.16
62864;BME280;48954;59.950;11.014;2023-12-07T06:26:07;100795.95;;;-10.31;80.10
62864;BME280;48954;59.950;11.014;2023-12-07T06:28:49;100794.52;;;-10.32;80.23
62864;BME280;48954;59.950;11.014;2023-12-07T06:31:31;100790.98;;;-10.34;80.00
62864;BME280;48954;59.950;11.014;2023-12-07T06:34:11;100792.57;;;-10.35;80.17
62864;BME280;48954;59.950;11.014;2023-12-07T06:37:14;100795.02;;;-10.36;80.16
62864;BME280;48954;59.950;11.014;2023-12-07T06:39:54;100797.33;;;-10.38;80.08
62864;BME280;48954;59.950;11.014;2023-12-07T06:42:52;100802.50;;;-10.38;80.11
62864;BME280;48954;59.950;11.014;2023-12-07T06:45:50;100808.73;;;-10.39;80.14
62864;BME280;48954;59.950;11.014;2023-12-07T06:48:18;100806.55;;;-10.40;80.34
62864;BME280;48954;59.950;11.014;2023-12-07T06:50:59;100803.50;;;-10.44;80.05
62864;BME280;48954;59.950;11.014;2023-12-07T06:53:41;100804.36;;;-10.45;80.30
62864;BME280;48954;59.950;11.014;2023-12-07T06:56:10;100812.98;;;-10.45;80.13
62864;BME280;48954;59.950;11.014;2023-12-07T06:58:47;100814.04;;;-10.46;80.01
62864;BME280;48954;59.950;11.014;2023-12-07T07:01:18;100816.23;;;-10.48;80.29
62864;BME280;48954;59.950;11.014;2023-12-07T07:03:45;100818.80;;;-10.49;80.15
62864;BME280;48954;59.950;11.014;2023-12-07T07:06:11;100816.84;;;-10.50;80.14
62864;BME280;48954;59.950;11.014;2023-12-07T07:08:42;100813.23;;;-10.51;79.96
62864;BME280;48954;59.950;11.014;2023-12-07T07:11:12;100817.70;;;-10.51;80.12
62864;BME280;48954;59.950;11.014;2023-12-07T07:13:39;100815.16;;;-10.52;80.20
62864;BME280;48954;59.950;11.014;2023-12-07T07:16:10;100818.77;;;-10.53;80.22
62864;BME280;48954;59.950;11.014;2023-12-07T07:18:42;100816.59;;;-10.54;80.25
62864;BME280;48954;59.950;11.014;2023-12-07T07:21:12;100814.14;;;-10.54;80.11
62864;BME280;48954;59.950;11.014;2023-12-07T07:23:42;100809.66;;;-10.56;80.30
62864;BME280;48954;59.950;11.014;2023-12-07T07:26:10;100809.83;;;-10.55;79.80
62864;BME280;48954;59.950;11.014;2023-12-07T07:28:43;100806.27;;;-10.55;80.08
62864;BME280;48954;59.950;11.014;2023-12-07T07:31:11;100807.36;;;-10.56;80.03
62864;BME280;48954;59.950;11.014;2023-12-07T07:33:41;100808.41;;;-10.57;80.09
62864;BME280;48954;59.950;11.014;2023-12-07T07:36:09;100811.15;;;-10.58;80.17
62864;BME280;48954;59.950;11.014;2023-12-07T07:38:36;100813.92;;;-10.59;80.22
62864;BME280;48954;59.950;11.014;2023-12-07T07:41:16;100812.91;;;-10.60;80.27
62864;BME280;48954;59.950;11.014;2023-12-07T07:43:47;100809.50;;;-10.59;80.12
62864;BME280;48954;59.950;11.014;2023-12-07T07:46:29;100811.48;;;-10.59;80.13
62864;BME280;48954;59.950;11.014;2023-12-07T07:49:01;100808.93;;;-10.60;80.05
62864;BME280;48954;59.950;11.014;2023-12-07T07:51:28;100809.10;;;-10.59;80.48
62864;BME280;48954;59.950;11.014;2023-12-07T07:53:58;100806.16;;;-10.58;80.34
62864;BME280;48954;59.950;11.014;2023-12-07T07:56:28;100801.47;;;-10.57;80.26
62864;BME280;48954;59.950;11.014;2023-12-07T07:59:04;100800.73;;;-10.56;80.23
62864;BME280;48954;59.950;11.014;2023-12-07T08:01:38;100802.79;;;-10.55;80.57
62864;BME280;48954;59.950;11.014;2023-12-07T08:04:18;100801.11;;;-10.56;80.40
62864;BME280;48954;59.950;11.014;2023-12-07T08:06:46;100801.86;;;-10.59;80.17
62864;BME280;48954;59.950;11.014;2023-12-07T08:09:13;100806.08;;;-10.57;80.40
62864;BME280;48954;59.950;11.014;2023-12-07T08:11:49;100801.38;;;-10.58;80.18
62864;BME280;48954;59.950;11.014;2023-12-07T08:14:29;100806.45;;;-10.57;80.16
62864;BME280;48954;59.950;11.014;2023-12-07T08:16:58;100805.85;;;-10.57;80.31
62864;BME280;48954;59.950;11.014;2023-12-07T08:19:24;100805.44;;;-10.56;80.09
62864;BME280;48954;59.950;11.014;2023-12-07T08:22:05;100808.55;;;-10.56;80.27
62864;BME280;48954;59.950;11.014;2023-12-07T08:24:35;100810.70;;;-10.54;80.05
62864;BME280;48954;59.950;11.014;2023-12-07T08:27:15;100802.52;;;-10.54;80.07
62864;BME280;48954;59.950;11.014;2023-12-07T08:29:45;100799.95;;;-10.52;80.06
62864;BME280;48954;59.950;11.014;2023-12-07T08:32:22;100800.67;;;-10.51;80.10
62864;BME280;48954;59.950;11.014;2023-12-07T08:34:50;100799.95;;;-10.50;79.85
62864;BME280;48954;59.950;11.014;2023-12-07T08:37:24;100794.91;;;-10.49;80.12
62864;BME280;48954;59.950;11.014;2023-12-07T08:39:51;100795.16;;;-10.49;79.97
62864;BME280;48954;59.950;11.014;2023-12-07T08:42:20;100794.48;;;-10.47;80.01
62864;BME280;48954;59.950;11.014;2023-12-07T08:44:46;100796.81;;;-10.48;79.70
62864;BME280;48954;59.950;11.014;2023-12-07T08:47:15;100796.73;;;-10.45;80.01
62864;BME280;48954;59.950;11.014;2023-12-07T08:49:46;100793.11;;;-10.44;79.99
62864;BME280;48954;59.950;11.014;2023-12-07T08:52:37;100798.89;;;-10.42;79.90
62864;BME280;48954;59.950;11.014;2023-12-07T08:55:05;100791.91;;;-10.41;79.94
62864;BME280;48954;59.950;11.014;2023-12-07T08:57:38;100794.57;;;-10.39;80.05
62864;BME280;48954;59.950;11.014;2023-12-07T09:00:40;100789.86;;;-10.36;80.09
62864;BME280;48954;59.950;11.014;2023-12-07T09:03:28;100792.23;;;-10.31;80.05
62864;BME280;48954;59.950;11.014;2023-12-07T09:05:56;100788.89;;;-10.27;79.75
62864;BME280;48954;59.950;11.014;2023-12-07T09:08:37;100791.63;;;-10.24;79.97
62864;BME280;48954;59.950;11.014;2023-12-07T09:11:04;100790.42;;;-10.21;80.00
62864;BME280;48954;59.950;11.014;2023-12-07T09:13:31;100784.28;;;-10.21;79.68
62864;BME280;48954;59.950;11.014;2023-12-07T09:15:58;100785.30;;;-10.23;79.76
62864;BME280;48954;59.950;11.014;2023-12-07T09:18:39;100795.42;;;-10.20;79.45
62864;BME280;48954;59.950;11.014;2023-12-07T09:21:15;100795.75;;;-10.20;79.39
62864;BME280;48954;59.950;11.014;2023-12-07T09:23:42;100794.45;;;-10.20;79.45
62864;BME280;48954;59.950;11.014;2023-12-07T09:26:17;100791.98;;;-10.19;79.30
62864;BME280;48954;59.950;11.014;2023-12-07T09:28:46;100789.64;;;-10.18;79.55
62864;BME280;48954;59.950;11.014;2023-12-07T09:31:12;100796.98;;;-10.14;79.39
62864;BME280;48954;59.950;11.014;2023-12-07T09:33:39;100797.77;;;-10.09;79.32
62864;BME280;48954;59.950;11.014;2023-12-07T09:36:06;100797.64;;;-10.01;79.39
62864;BME280;48954;59.950;11.014;2023-12-07T09:38:37;100801.52;;;-9.91;79.53
62864;BME280;48954;59.950;11.014;2023-12-07T09:41:08;100805.14;;;-9.81;79.57
62864;BME280;48954;59.950;11.014;2023-12-07T09:43:34;100803.29;;;-9.69;79.51
62864;BME280;48954;59.950;11.014;2023-12-07T09:46:02;100802.49;;;-9.58;79.23
62864;BME280;48954;59.950;11.014;2023-12-07T09:48:30;100796.45;;;-9.49;79.24
62864;BME280;48954;59.950;11.014;2023-12-07T09:50:56;100802.55;;;-9.43;79.36
62864;BME280;48954;59.950;11.014;2023-12-07T09:53:26;100799.11;;;-9.33;79.16
62864;BME280;48954;59.950;11.014;2023-12-07T09:55:53;100798.71;;;-9.30;79.04
62864;BME280;48954;59.950;11.014;2023-12-07T09:58:19;100794.20;;;-9.29;78.88
62864;BME280;48954;59.950;11.014;2023-12-07T10:00:47;100791.82;;;-9.29;78.79
62864;BME280;48954;59.950;11.014;2023-12-07T10:03:21;100794.45;;;-9.28;78.36
62864;BME280;48954;59.950;11.014;2023-12-07T10:05:56;100793.88;;;-9.27;78.45
62864;BME280;48954;59.950;11.014;2023-12-07T10:08:27;100794.04;;;-9.26;78.73
62864;BME280;48954;59.950;11.014;2023-12-07T10:11:05;100796.38;;;-9.20;78.83
62864;BME280;48954;59.950;11.014;2023-12-07T10:13:36;100797.65;;;-9.13;78.45
62864;BME280;48954;59.950;11.014;2023-12-07T10:16:14;100794.73;;;-9.08;78.60
62864;BME280;48954;59.950;11.014;2023-12-07T10:18:41;100795.52;;;-9.01;78.43
62864;BME280;48954;59.950;11.014;2023-12-07T10:21:08;100788.34;;;-8.98;78.45
62864;BME280;48954;59.950;11.014;2023-12-07T10:23:36;100780.79;;;-8.96;78.54
62864;BME280;48954;59.950;11.014;2023-12-07T10:26:03;100781.77;;;-8.97;78.20
62864;BME280;48954;59.950;11.014;2023-12-07T10:28:31;100776.61;;;-8.97;78.28
62864;BME280;48954;59.950;11.014;2023-12-07T10:30:59;100777.02;;;-8.98;77.96
62864;BME280;48954;59.950;11.014;2023-12-07T10:33:26;100775.55;;;-8.96;78.17
62864;BME280;48954;59.950;11.014;2023-12-07T10:35:54;100776.39;;;-8.92;77.89
62864;BME280;48954;59.950;11.014;2023-12-07T10:38:21;100773.18;;;-8.89;78.57
62864;BME280;48954;59.950;11.014;2023-12-07T10:40:50;100773.73;;;-8.87;78.30
62864;BME280;48954;59.950;11.014;2023-12-07T10:43:27;100765.60;;;-8.86;78.15
62864;BME280;48954;59.950;11.014;2023-12-07T10:45:55;100765.84;;;-8.89;77.78
62864;BME280;48954;59.950;11.014;2023-12-07T10:48:22;100762.62;;;-8.96;77.84
62864;BME280;48954;59.950;11.014;2023-12-07T10:50:51;100763.86;;;-8.97;78.00
62864;BME280;48954;59.950;11.014;2023-12-07T10:53:27;100763.04;;;-8.98;77.55
62864;BME280;48954;59.950;11.014;2023-12-07T10:55:56;100759.52;;;-8.97;77.91
62864;BME280;48954;59.950;11.014;2023-12-07T10:58:23;100757.49;;;-8.96;77.99
62864;BME280;48954;59.950;11.014;2023-12-07T11:00:51;100758.88;;;-8.91;78.47
62864;BME280;48954;59.950;11.014;2023-12-07T11:03:18;100759.40;;;-8.82;77.96
62864;BME280;48954;59.950;11.014;2023-12-07T11:05:46;100757.69;;;-8.67;78.07
62864;BME280;48954;59.950;11.014;2023-12-07T11:12:01;100751.55;;;-8.31;78.11
62864;BME280;48954;59.950;11.014;2023-12-07T11:14:33;100750.91;;;-7.82;77.65
62864;BME280;48954;59.950;11.014;2023-12-07T11:17:03;100751.75;;;-7.33;77.85
62864;BME280;48954;59.950;11.014;2023-12-07T11:21:59;100748.27;;;-6.79;78.14
62864;BME280;48954;59.950;11.014;2023-12-07T11:24:57;100747.77;;;-6.84;77.49
62864;BME280;48954;59.950;11.014;2023-12-07T11:27:32;100748.91;;;-6.89;76.81
62864;BME280;48954;59.950;11.014;2023-12-07T11:30:08;100748.60;;;-6.92;76.96
62864;BME280;48954;59.950;11.014;2023-12-07T11:32:36;100745.68;;;-6.92;77.19
62864;BME280;48954;59.950;11.014;2023-12-07T11:35:03;100742.63;;;-6.91;76.62
62864;BME280;48954;59.950;11.014;2023-12-07T11:38:02;100745.15;;;-6.92;76.63
62864;BME280;48954;59.950;11.014;2023-12-07T11:40:30;100746.67;;;-6.93;76.12
62864;BME280;48954;59.950;11.014;2023-12-07T11:42:59;100743.17;;;-6.98;76.15
62864;BME280;48954;59.950;11.014;2023-12-07T11:45:41;100738.57;;;-7.05;76.13
62864;BME280;48954;59.950;11.014;2023-12-07T11:48:13;100738.55;;;-7.13;76.23
62864;BME280;48954;59.950;11.014;2023-12-07T11:53:33;100742.74;;;-7.32;76.06
62864;BME280;48954;59.950;11.014;2023-12-07T11:56:01;100744.37;;;-7.35;76.29
62864;BME280;48954;59.950;11.014;2023-12-07T11:58:29;100742.23;;;-7.33;76.57
62864;BME280;48954;59.950;11.014;2023-12-07T12:01:03;100748.84;;;-7.32;76.52
62864;BME280;48954;59.950;11.014;2023-12-07T12:03:31;100744.31;;;-7.32;76.12
62864;BME280;48954;59.950;11.014;2023-12-07T12:06:03;100743.80;;;-7.36;76.03
62864;BME280;48954;59.950;11.014;2023-12-07T12:08:31;100740.23;;;-7.42;76.25
62864;BME280;48954;59.950;11.014;2023-12-07T12:11:01;100745.83;;;-7.48;76.34
62864;BME280;48954;59.950;11.014;2023-12-07T12:13:34;100749.48;;;-7.56;76.29
62864;BME280;48954;59.950;11.014;2023-12-07T12:16:14;100751.27;;;-7.62;76.59
62864;BME280;48954;59.950;11.014;2023-12-07T12:18:55;100748.23;;;-7.67;76.43
62864;BME280;48954;59.950;11.014;2023-12-07T12:21:41;100746.50;;;-7.73;76.47
62864;BME280;48954;59.950;11.014;2023-12-07T12:24:22;100743.05;;;-7.79;76.82
62864;BME280;48954;59.950;11.014;2023-12-07T12:27:04;100738.64;;;-7.83;77.01
62864;BME280;48954;59.950;11.014;2023-12-07T12:29:36;100741.31;;;-7.84;77.10
62864;BME280;48954;59.950;11.014;2023-12-07T12:32:05;100745.14;;;-7.86;76.77
62864;BME280;48954;59.950;11.014;2023-12-07T12:34:50;100741.23;;;-7.87;76.98
62864;BME280;48954;59.950;11.014;2023-12-07T12:37:31;100733.88;;;-7.91;76.69
62864;BME280;48954;59.950;11.014;2023-12-07T12:40:07;100731.98;;;-7.97;76.90
62864;BME280;48954;59.950;11.014;2023-12-07T12:42:35;100731.70;;;-7.99;77.05
62864;BME280;48954;59.950;11.014;2023-12-07T12:45:04;100732.65;;;-8.00;77.09
62864;BME280;48954;59.950;11.014;2023-12-07T12:47:38;100733.44;;;-8.03;77.28
62864;BME280;48954;59.950;11.014;2023-12-07T12:50:05;100730.40;;;-8.03;77.14
62864;BME280;48954;59.950;11.014;2023-12-07T12:52:33;100731.19;;;-8.02;77.33
62864;BME280;48954;59.950;11.014;2023-12-07T12:55:00;100728.05;;;-8.02;77.49
62864;BME280;48954;59.950;11.014;2023-12-07T12:57:26;100727.84;;;-7.99;77.11
62864;BME280;48954;59.950;11.014;2023-12-07T12:59:53;100725.38;;;-7.99;77.35
62864;BME280;48954;59.950;11.014;2023-12-07T13:02:25;100726.30;;;-8.00;77.48
62864;BME280;48954;59.950;11.014;2023-12-07T13:05:10;100726.50;;;-8.03;77.25
62864;BME280;48954;59.950;11.014;2023-12-07T13:07:37;100719.85;;;-8.08;77.25
62864;BME280;48954;59.950;11.014;2023-12-07T13:10:05;100718.39;;;-8.13;77.47
62864;BME280;48954;59.950;11.014;2023-12-07T13:12:32;100715.67;;;-8.17;77.35
62864;BME280;48954;59.950;11.014;2023-12-07T13:14:59;100715.08;;;-8.22;77.44
62864;BME280;48954;59.950;11.014;2023-12-07T13:17:28;100710.99;;;-8.27;77.74
62864;BME280;48954;59.950;11.014;2023-12-07T13:20:18;100713.33;;;-8.29;77.76
62864;BME280;48954;59.950;11.014;2023-12-07T13:22:44;100708.25;;;-8.31;77.63
62864;BME280;48954;59.950;11.014;2023-12-07T13:25:11;100711.23;;;-8.31;77.80